sensor_id;sensor_type;location;lat;lon;timestamp;pressure;altitude;pressure_sealevel;temperature;humidity
12594;BME280;6362;50.208;9.182;2023-04-02T00:02:45;98968.19;;;8.12;92.16
12594;BME280;6362;50.208;9.182;2023-04-02T00:07:41;98974.22;;;8.12;92.18
12594;BME280;6362;50.208;9.182;2023-04-02T00:10:34;98979.41;;;8.12;91.99
12594;BME280;6362;50.208;9.182;2023-04-02T00:13:22;98985.41;;;8.14;92.28
12594;BME280;6362;50.208;9.182;2023-04-02T00:15:49;98981.13;;;8.12;92.26
12594;BME280;6362;50.208;9.182;2023-04-02T00:18:20;98983.72;;;8.12;92.40
12594;BME280;6362;50.208;9.182;2023-04-02T00:21:13;98992.34;;;8.12;92.29
12594;BME280;6362;50.208;9.182;2023-04-02T00:23:40;99000.97;;;8.13;92.18
12594;BME280;6362;50.208;9.182;2023-04-02T00:28:46;98995.81;;;8.11;92.60
12594;BME280;6362;50.208;9.182;2023-04-02T00:31:11;99007.03;;;8.10;92.30
12594;BME280;6362;50.208;9.182;2023-04-02T00:33:37;99005.34;;;8.08;92.22
12594;BME280;6362;50.208;9.182;2023-04-02T00:36:05;99005.34;;;8.08;92.33
12594;BME280;6362;50.208;9.182;2023-04-02T00:38:32;99004.50;;;8.07;91.99
12594;BME280;6362;50.208;9.182;2023-04-02T00:41:04;99006.25;;;8.05;92.27
12594;BME280;6362;50.208;9.182;2023-04-02T00:43:35;99005.38;;;8.06;92.11
12594;BME280;6362;50.208;9.182;2023-04-02T00:46:03;99014.00;;;8.07;92.04
12594;BME280;6362;50.208;9.182;2023-04-02T00:48:55;99010.56;;;8.06;92.36
12594;BME280;6362;50.208;9.182;2023-04-02T00:51:27;99009.69;;;8.04;92.19
12594;BME280;6362;50.208;9.182;2023-04-02T00:53:55;99015.72;;;8.05;92.14
12594;BME280;6362;50.208;9.182;2023-04-02T00:56:30;99012.28;;;8.06;92.23
12594;BME280;6362;50.208;9.182;2023-04-02T00:58:57;99017.47;;;8.04;92.38
12594;BME280;6362;50.208;9.182;2023-04-02T01:01:28;99024.38;;;8.05;92.04
12594;BME280;6362;50.208;9.182;2023-04-02T01:06:24;99022.66;;;8.06;92.14
12594;BME280;6362;50.208;9.182;2023-04-02T01:11:51;99026.09;;;8.05;92.45
12594;BME280;6362;50.208;9.182;2023-04-02T01:17:21;99033.88;;;8.03;92.58
12594;BME280;6362;50.208;9.182;2023-04-02T01:25:39;99040.78;;;8.04;92.15
12594;BME280;6362;50.208;9.182;2023-04-02T01:28:17;99036.53;;;7.99;92.10
12594;BME280;6362;50.208;9.182;2023-04-02T01:30:51;99037.44;;;7.96;91.66
12594;BME280;6362;50.208;9.182;2023-04-02T01:33:24;99048.59;;;7.98;92.04
12594;BME280;6362;50.208;9.182;2023-04-02T01:36:07;99042.50;;;8.05;92.11
12594;BME280;6362;50.208;9.182;2023-04-02T01:38:49;99046.88;;;7.99;91.94
12594;BME280;6362;50.208;9.182;2023-04-02T01:41:27;99051.19;;;8.01;92.18
12594;BME280;6362;50.208;9.182;2023-04-02T01:44:02;99058.13;;;7.98;91.87
12594;BME280;6362;50.208;9.182;2023-04-02T01:46:33;99063.25;;;7.99;92.00
12594;BME280;6362;50.208;9.182;2023-04-02T01:49:01;99070.19;;;7.97;92.26
12594;BME280;6362;50.208;9.182;2023-04-02T01:51:32;99061.59;;;7.97;92.26
12594;BME280;6362;50.208;9.182;2023-04-02T01:54:01;99071.09;;;7.93;92.80
12594;BME280;6362;50.208;9.182;2023-04-02T01:56:28;99075.44;;;7.94;92.76
12594;BME280;6362;50.208;9.182;2023-04-02T01:58:56;99071.09;;;7.94;92.51
12594;BME280;6362;50.208;9.182;2023-04-02T02:01:26;99078.03;;;7.94;92.53
12594;BME280;6362;50.208;9.182;2023-04-02T02:03:54;99078.84;;;7.96;92.45
12594;BME280;6362;50.208;9.182;2023-04-02T02:06:21;99077.94;;;8.00;92.35
12594;BME280;6362;50.208;9.182;2023-04-02T02:09:04;99083.19;;;7.92;92.13
12594;BME280;6362;50.208;9.182;2023-04-02T02:11:31;99090.97;;;7.92;92.41
12594;BME280;6362;50.208;9.182;2023-04-02T02:14:21;99086.69;;;7.90;92.34
12594;BME280;6362;50.208;9.182;2023-04-02T02:16:48;99084.97;;;7.87;92.69
12594;BME280;6362;50.208;9.182;2023-04-02T02:21:53;99091.88;;;7.87;93.02
12594;BME280;6362;50.208;9.182;2023-04-02T02:24:23;99095.22;;;8.00;92.78
12594;BME280;6362;50.208;9.182;2023-04-02T02:29:40;99105.63;;;7.95;92.39
12594;BME280;6362;50.208;9.182;2023-04-02T02:32:08;99109.06;;;7.92;92.88
12594;BME280;6362;50.208;9.182;2023-04-02T02:37:29;99122.06;;;7.91;93.18
12594;BME280;6362;50.208;9.182;2023-04-02T02:40:00;99128.09;;;7.90;93.00
12594;BME280;6362;50.208;9.182;2023-04-02T02:42:41;99129.81;;;7.91;93.21
12594;BME280;6362;50.208;9.182;2023-04-02T02:45:21;99128.97;;;7.90;93.21
12594;BME280;6362;50.208;9.182;2023-04-02T02:47:48;99132.41;;;7.91;93.24
12594;BME280;6362;50.208;9.182;2023-04-02T02:50:19;99136.72;;;7.90;93.29
12594;BME280;6362;50.208;9.182;2023-04-02T02:52:50;99138.47;;;7.90;93.42
12594;BME280;6362;50.208;9.182;2023-04-02T02:55:18;99141.91;;;7.90;93.13
12594;BME280;6362;50.208;9.182;2023-04-02T02:57:54;99147.94;;;7.88;93.16
12594;BME280;6362;50.208;9.182;2023-04-02T03:00:20;99149.69;;;7.87;93.00
12594;BME280;6362;50.208;9.182;2023-04-02T03:02:49;99141.06;;;7.87;93.26
12594;BME280;6362;50.208;9.182;2023-04-02T03:05:18;99152.28;;;7.86;93.63
12594;BME280;6362;50.208;9.182;2023-04-02T03:07:45;99154.03;;;7.85;93.67
12594;BME280;6362;50.208;9.182;2023-04-02T03:12:50;99160.94;;;7.85;93.65
12594;BME280;6362;50.208;9.182;2023-04-02T03:15:35;99166.94;;;7.87;93.67
12594;BME280;6362;50.208;9.182;2023-04-02T03:18:09;99170.41;;;7.86;93.54
12594;BME280;6362;50.208;9.182;2023-04-02T03:20:52;99172.97;;;7.87;93.81
12594;BME280;6362;50.208;9.182;2023-04-02T03:23:31;99176.44;;;7.86;93.34
12594;BME280;6362;50.208;9.182;2023-04-02T03:26:18;99180.78;;;7.84;93.67
12594;BME280;6362;50.208;9.182;2023-04-02T03:29:09;99179.06;;;7.82;93.39
12594;BME280;6362;50.208;9.182;2023-04-02T03:31:43;99187.72;;;7.81;93.50
12594;BME280;6362;50.208;9.182;2023-04-02T03:36:58;99194.66;;;7.79;93.53
12594;BME280;6362;50.208;9.182;2023-04-02T03:39:34;99192.88;;;7.81;93.02
12594;BME280;6362;50.208;9.182;2023-04-02T03:42:12;99196.34;;;7.83;93.36
12594;BME280;6362;50.208;9.182;2023-04-02T03:52:48;99220.47;;;7.85;93.41
12594;BME280;6362;50.208;9.182;2023-04-02T03:55:18;99213.56;;;7.85;93.63
12594;BME280;6362;50.208;9.182;2023-04-02T03:58:08;99222.25;;;7.80;93.65
12594;BME280;6362;50.208;9.182;2023-04-02T04:03:30;99229.16;;;7.78;93.68
12594;BME280;6362;50.208;9.182;2023-04-02T04:06:01;99230.88;;;7.79;93.33
12594;BME280;6362;50.208;9.182;2023-04-02T04:09:00;99233.44;;;7.80;93.55
12594;BME280;6362;50.208;9.182;2023-04-02T04:11:43;99237.78;;;7.78;93.94
12594;BME280;6362;50.208;9.182;2023-04-02T04:14:36;99246.41;;;7.80;93.73
12594;BME280;6362;50.208;9.182;2023-04-02T04:19:41;99249.00;;;7.79;93.90
12594;BME280;6362;50.208;9.182;2023-04-02T04:24:44;99255.91;;;7.77;93.87
12594;BME280;6362;50.208;9.182;2023-04-02T04:27:22;99262.81;;;7.78;94.01
12594;BME280;6362;50.208;9.182;2023-04-02T04:32:43;99266.25;;;7.78;94.45
12594;BME280;6362;50.208;9.182;2023-04-02T04:35:25;99266.25;;;7.80;94.03
12594;BME280;6362;50.208;9.182;2023-04-02T04:38:01;99268.00;;;7.78;93.75
12594;BME280;6362;50.208;9.182;2023-04-02T04:40:36;99280.03;;;7.80;94.18
12594;BME280;6362;50.208;9.182;2023-04-02T04:43:12;99278.28;;;7.82;93.90
12594;BME280;6362;50.208;9.182;2023-04-02T04:51:00;99287.81;;;7.80;93.94
12594;BME280;6362;50.208;9.182;2023-04-02T04:53:28;99292.97;;;7.82;94.15
12594;BME280;6362;50.208;9.182;2023-04-02T04:55:56;99299.88;;;7.81;94.04
12594;BME280;6362;50.208;9.182;2023-04-02T04:58:43;99296.44;;;7.81;93.90
12594;BME280;6362;50.208;9.182;2023-04-02T05:01:15;99304.19;;;7.81;93.76
12594;BME280;6362;50.208;9.182;2023-04-02T05:03:59;99303.34;;;7.80;94.32
12594;BME280;6362;50.208;9.182;2023-04-02T05:06:44;99311.09;;;7.82;94.04
12594;BME280;6362;50.208;9.182;2023-04-02T05:14:47;99336.97;;;7.82;93.84
12594;BME280;6362;50.208;9.182;2023-04-02T05:17:51;99342.19;;;7.79;92.58
12594;BME280;6362;50.208;9.182;2023-04-02T05:20:29;99350.91;;;7.58;91.61
12594;BME280;6362;50.208;9.182;2023-04-02T05:25:24;99358.78;;;7.39;90.57
12594;BME280;6362;50.208;9.182;2023-04-02T05:32:58;99372.66;;;7.09;89.88
12594;BME280;6362;50.208;9.182;2023-04-02T05:35:34;99373.53;;;7.04;89.59
12594;BME280;6362;50.208;9.182;2023-04-02T05:38:00;99383.91;;;6.95;89.66
12594;BME280;6362;50.208;9.182;2023-04-02T05:40:32;99383.03;;;6.86;89.86
12594;BME280;6362;50.208;9.182;2023-04-02T05:42:59;99383.88;;;6.92;89.44
12594;BME280;6362;50.208;9.182;2023-04-02T05:45:32;99383.03;;;6.80;89.09
12594;BME280;6362;50.208;9.182;2023-04-02T05:48:02;99381.34;;;6.79;88.72
12594;BME280;6362;50.208;9.182;2023-04-02T05:50:35;99388.25;;;6.73;88.89
12594;BME280;6362;50.208;9.182;2023-04-02T05:53:24;99396.81;;;6.72;88.98
12594;BME280;6362;50.208;9.182;2023-04-02T05:58:24;99400.28;;;6.58;88.36
12594;BME280;6362;50.208;9.182;2023-04-02T06:00:53;99408.88;;;6.54;88.73
12594;BME280;6362;50.208;9.182;2023-04-02T06:03:36;99409.78;;;6.56;88.19
12594;BME280;6362;50.208;9.182;2023-04-02T06:06:13;99414.06;;;6.54;88.51
12594;BME280;6362;50.208;9.182;2023-04-02T06:08:47;99417.53;;;6.50;88.58
12594;BME280;6362;50.208;9.182;2023-04-02T06:11:26;99424.38;;;6.48;88.68
12594;BME280;6362;50.208;9.182;2023-04-02T06:13:52;99432.13;;;6.44;88.42
12594;BME280;6362;50.208;9.182;2023-04-02T06:16:19;99436.44;;;6.42;88.08
12594;BME280;6362;50.208;9.182;2023-04-02T06:18:47;99439.03;;;6.39;88.30
12594;BME280;6362;50.208;9.182;2023-04-02T06:21:14;99444.19;;;6.43;88.23
12594;BME280;6362;50.208;9.182;2023-04-02T06:23:50;99452.81;;;6.45;88.01
12594;BME280;6362;50.208;9.182;2023-04-02T06:26:25;99452.81;;;6.41;87.60
12594;BME280;6362;50.208;9.182;2023-04-02T06:28:56;99466.56;;;6.38;87.62
12594;BME280;6362;50.208;9.182;2023-04-02T06:31:34;99461.38;;;6.32;87.36
12594;BME280;6362;50.208;9.182;2023-04-02T06:34:02;99462.25;;;6.29;86.75
12594;BME280;6362;50.208;9.182;2023-04-02T06:36:29;99469.97;;;6.22;86.55
12594;BME280;6362;50.208;9.182;2023-04-02T06:38:58;99476.00;;;6.22;86.42
12594;BME280;6362;50.208;9.182;2023-04-02T06:41:26;99482.91;;;6.28;86.72
12594;BME280;6362;50.208;9.182;2023-04-02T06:43:55;99493.22;;;6.25;86.95
12594;BME280;6362;50.208;9.182;2023-04-02T06:48:55;99505.28;;;6.23;86.88
12594;BME280;6362;50.208;9.182;2023-04-02T06:51:24;99508.69;;;6.16;86.34
12594;BME280;6362;50.208;9.182;2023-04-02T06:53:50;99510.41;;;6.12;86.63
12594;BME280;6362;50.208;9.182;2023-04-02T06:59:03;99528.50;;;6.17;86.78
12594;BME280;6362;50.208;9.182;2023-04-02T07:01:35;99525.88;;;6.14;85.94
12594;BME280;6362;50.208;9.182;2023-04-02T07:04:02;99533.66;;;6.17;86.19
12594;BME280;6362;50.208;9.182;2023-04-02T07:06:27;99530.19;;;6.07;86.08
12594;BME280;6362;50.208;9.182;2023-04-02T07:08:52;99545.66;;;6.07;86.91
12594;BME280;6362;50.208;9.182;2023-04-02T07:11:20;99544.81;;;6.13;86.89
12594;BME280;6362;50.208;9.182;2023-04-02T07:13:47;99549.97;;;6.08;86.54
12594;BME280;6362;50.208;9.182;2023-04-02T07:16:15;99556.91;;;6.20;86.39
12594;BME280;6362;50.208;9.182;2023-04-02T07:18:41;99557.78;;;6.23;85.94
12594;BME280;6362;50.208;9.182;2023-04-02T07:21:07;99568.13;;;6.29;85.82
12594;BME280;6362;50.208;9.182;2023-04-02T07:23:33;99572.44;;;6.29;86.15
12594;BME280;6362;50.208;9.182;2023-04-02T07:25:58;99573.47;;;7.13;88.62
12594;BME280;6362;50.208;9.182;2023-04-02T07:28:24;99584.66;;;7.03;83.74
12594;BME280;6362;50.208;9.182;2023-04-02T07:30:50;99587.25;;;6.97;83.46
12594;BME280;6362;50.208;9.182;2023-04-02T07:33:20;99590.72;;;7.01;82.76
12594;BME280;6362;50.208;9.182;2023-04-02T07:35:47;99595.00;;;7.05;82.60
12594;BME280;6362;50.208;9.182;2023-04-02T07:38:13;99601.06;;;7.11;82.11
12594;BME280;6362;50.208;9.182;2023-04-02T07:40:38;99605.34;;;6.96;81.67
12594;BME280;6362;50.208;9.182;2023-04-02T07:43:04;99613.94;;;6.78;81.95
12594;BME280;6362;50.208;9.182;2023-04-02T07:45:30;99618.19;;;6.70;82.93
12594;BME280;6362;50.208;9.182;2023-04-02T07:47:55;99619.03;;;6.58;83.36
12594;BME280;6362;50.208;9.182;2023-04-02T07:50:21;99627.66;;;6.55;83.63
12594;BME280;6362;50.208;9.182;2023-04-02T07:52:47;99631.84;;;6.38;83.93
12594;BME280;6362;50.208;9.182;2023-04-02T07:55:13;99642.09;;;6.18;83.40
12594;BME280;6362;50.208;9.182;2023-04-02T07:57:46;99640.38;;;6.17;83.37
12594;BME280;6362;50.208;9.182;2023-04-02T08:00:13;99649.81;;;6.14;84.58
12594;BME280;6362;50.208;9.182;2023-04-02T08:02:39;99652.31;;;6.01;84.00
12594;BME280;6362;50.208;9.182;2023-04-02T08:05:05;99656.59;;;5.98;84.78
12594;BME280;6362;50.208;9.182;2023-04-02T08:07:32;99657.38;;;5.91;84.49
12594;BME280;6362;50.208;9.182;2023-04-02T08:09:57;99677.22;;;5.92;84.28
12594;BME280;6362;50.208;9.182;2023-04-02T08:12:23;99683.97;;;5.82;83.75
12594;BME280;6362;50.208;9.182;2023-04-02T08:14:48;99682.25;;;5.81;83.98
12594;BME280;6362;50.208;9.182;2023-04-02T08:17:14;99687.38;;;5.75;84.85
12594;BME280;6362;50.208;9.182;2023-04-02T08:19:39;99691.69;;;5.76;84.94
12594;BME280;6362;50.208;9.182;2023-04-02T08:22:05;99697.69;;;5.75;84.87
12594;BME280;6362;50.208;9.182;2023-04-02T08:24:30;99698.56;;;5.74;84.64
12594;BME280;6362;50.208;9.182;2023-04-02T08:26:56;99710.59;;;5.73;84.57
12594;BME280;6362;50.208;9.182;2023-04-02T08:29:22;99718.38;;;5.78;84.95
12594;BME280;6362;50.208;9.182;2023-04-02T08:31:47;99724.50;;;5.89;84.59
12594;BME280;6362;50.208;9.182;2023-04-02T08:34:13;99721.91;;;5.89;84.01
12594;BME280;6362;50.208;9.182;2023-04-02T08:36:40;99738.28;;;5.93;84.59
12594;BME280;6362;50.208;9.182;2023-04-02T08:39:08;99741.81;;;6.02;84.04
12594;BME280;6362;50.208;9.182;2023-04-02T08:41:41;99738.38;;;6.05;84.08
12594;BME280;6362;50.208;9.182;2023-04-02T08:47:07;99750.59;;;6.26;82.98
12594;BME280;6362;50.208;9.182;2023-04-02T08:49:48;99759.28;;;6.35;82.64
12594;BME280;6362;50.208;9.182;2023-04-02T08:52:24;99756.69;;;6.34;81.34
12594;BME280;6362;50.208;9.182;2023-04-02T08:54:50;99773.09;;;6.44;82.60
12594;BME280;6362;50.208;9.182;2023-04-02T08:57:21;99778.31;;;6.51;81.82
12594;BME280;6362;50.208;9.182;2023-04-02T08:59:58;99780.09;;;6.61;82.33
12594;BME280;6362;50.208;9.182;2023-04-02T09:02:35;99792.16;;;6.61;81.35
12594;BME280;6362;50.208;9.182;2023-04-02T09:05:05;99792.16;;;6.66;80.97
12594;BME280;6362;50.208;9.182;2023-04-02T09:07:32;99789.56;;;6.56;81.27
12594;BME280;6362;50.208;9.182;2023-04-02T09:09:58;99802.50;;;6.63;80.45
12594;BME280;6362;50.208;9.182;2023-04-02T09:12:29;99807.69;;;6.63;80.91
12594;BME280;6362;50.208;9.182;2023-04-02T09:15:16;99812.84;;;6.61;81.08
12594;BME280;6362;50.208;9.182;2023-04-02T09:17:47;99813.66;;;6.60;80.73
12594;BME280;6362;50.208;9.182;2023-04-02T09:20:19;99822.34;;;6.67;80.85
12594;BME280;6362;50.208;9.182;2023-04-02T09:22:47;99834.44;;;6.72;80.46
12594;BME280;6362;50.208;9.182;2023-04-02T09:25:27;99825.72;;;6.56;80.78
12594;BME280;6362;50.208;9.182;2023-04-02T09:27:58;99836.06;;;6.58;80.96
12594;BME280;6362;50.208;9.182;2023-04-02T09:32:58;99842.13;;;6.65;80.79
12594;BME280;6362;50.208;9.182;2023-04-02T09:35:28;99852.50;;;6.69;80.56
12594;BME280;6362;50.208;9.182;2023-04-02T09:40:43;99863.75;;;6.76;80.96
12594;BME280;6362;50.208;9.182;2023-04-02T09:43:34;99859.50;;;6.85;80.65
12594;BME280;6362;50.208;9.182;2023-04-02T09:46:04;99856.94;;;6.93;79.96
12594;BME280;6362;50.208;9.182;2023-04-02T09:51:27;99881.97;;;6.99;80.10
12594;BME280;6362;50.208;9.182;2023-04-02T09:56:30;99881.28;;;7.24;80.97
12594;BME280;6362;50.208;9.182;2023-04-02T10:03:58;99899.31;;;7.13;79.70
12594;BME280;6362;50.208;9.182;2023-04-02T10:06:26;99904.53;;;7.18;78.63
12594;BME280;6362;50.208;9.182;2023-04-02T10:08:52;99908.03;;;7.31;79.23
12594;BME280;6362;50.208;9.182;2023-04-02T10:11:29;99912.34;;;7.32;77.53
12594;BME280;6362;50.208;9.182;2023-04-02T10:14:12;99925.19;;;7.13;78.19
12594;BME280;6362;50.208;9.182;2023-04-02T10:16:52;99927.78;;;7.17;77.75
12594;BME280;6362;50.208;9.182;2023-04-02T10:21:53;99931.44;;;7.51;78.42
12594;BME280;6362;50.208;9.182;2023-04-02T10:24:18;99937.34;;;7.28;77.37
12594;BME280;6362;50.208;9.182;2023-04-02T10:26:56;99940.84;;;7.39;77.67
12594;BME280;6362;50.208;9.182;2023-04-02T10:32:34;99957.94;;;7.14;76.13
12594;BME280;6362;50.208;9.182;2023-04-02T10:45:18;99974.41;;;7.29;76.35
12594;BME280;6362;50.208;9.182;2023-04-02T10:50:36;99988.97;;;7.16;75.40
12594;BME280;6362;50.208;9.182;2023-04-02T10:53:20;99995.03;;;7.21;76.42
12594;BME280;6362;50.208;9.182;2023-04-02T10:55:54;100000.22;;;7.17;75.90
12594;BME280;6362;50.208;9.182;2023-04-02T10:58:23;100009.72;;;7.22;76.42
12594;BME280;6362;50.208;9.182;2023-04-02T11:00:51;100006.97;;;7.04;75.53
12594;BME280;6362;50.208;9.182;2023-04-02T11:03:31;100013.13;;;7.17;76.76
12594;BME280;6362;50.208;9.182;2023-04-02T11:06:05;100011.34;;;7.08;75.84
12594;BME280;6362;50.208;9.182;2023-04-02T11:08:41;100020.91;;;7.20;75.99
12594;BME280;6362;50.208;9.182;2023-04-02T11:16:23;100035.59;;;7.27;74.70
12594;BME280;6362;50.208;9.182;2023-04-02T11:21:45;100041.00;;;7.60;73.84
12594;BME280;6362;50.208;9.182;2023-04-02T11:42:35;100080.78;;;7.70;71.45
12594;BME280;6362;50.208;9.182;2023-04-02T11:53:29;100104.63;;;7.32;70.63
12594;BME280;6362;50.208;9.182;2023-04-02T12:06:45;100121.69;;;7.09;69.90
12594;BME280;6362;50.208;9.182;2023-04-02T12:11:43;100132.00;;;7.07;71.71
12594;BME280;6362;50.208;9.182;2023-04-02T12:14:29;100138.97;;;7.16;71.10
12594;BME280;6362;50.208;9.182;2023-04-02T12:16:56;100146.94;;;7.33;71.93
12594;BME280;6362;50.208;9.182;2023-04-02T12:19:22;100151.28;;;7.38;71.73
12594;BME280;6362;50.208;9.182;2023-04-02T12:21:51;100158.28;;;7.52;70.12
12594;BME280;6362;50.208;9.182;2023-04-02T12:24:22;100159.06;;;7.43;68.11
12594;BME280;6362;50.208;9.182;2023-04-02T12:26:48;100162.34;;;7.24;68.30
12594;BME280;6362;50.208;9.182;2023-04-02T12:29:24;100168.28;;;7.13;69.28
12594;BME280;6362;50.208;9.182;2023-04-02T12:31:51;100162.13;;;7.01;68.86
12594;BME280;6362;50.208;9.182;2023-04-02T12:34:19;100171.56;;;6.99;69.27
12594;BME280;6362;50.208;9.182;2023-04-02T12:37:01;100180.25;;;7.04;70.47
12594;BME280;6362;50.208;9.182;2023-04-02T12:39:29;100177.72;;;7.08;70.23
12594;BME280;6362;50.208;9.182;2023-04-02T12:41:55;100181.09;;;7.04;69.53
12594;BME280;6362;50.208;9.182;2023-04-02T12:44:23;100182.81;;;7.02;70.18
12594;BME280;6362;50.208;9.182;2023-04-02T12:46:50;100186.19;;;6.95;67.86
12594;BME280;6362;50.208;9.182;2023-04-02T12:49:41;100187.94;;;6.96;69.72
12594;BME280;6362;50.208;9.182;2023-04-02T12:52:12;100192.13;;;6.88;69.05
12594;BME280;6362;50.208;9.182;2023-04-02T12:54:47;100194.56;;;6.73;69.29
12594;BME280;6362;50.208;9.182;2023-04-02T12:59:53;100200.59;;;6.73;70.46
12594;BME280;6362;50.208;9.182;2023-04-02T13:02:24;100199.00;;;6.84;70.42
12594;BME280;6362;50.208;9.182;2023-04-02T13:04:52;100203.97;;;6.71;70.21
12594;BME280;6362;50.208;9.182;2023-04-02T13:07:20;100208.19;;;6.63;71.47
12594;BME280;6362;50.208;9.182;2023-04-02T13:09:49;100212.56;;;6.68;70.82
12594;BME280;6362;50.208;9.182;2023-04-02T13:12:31;100222.91;;;6.68;71.09
12594;BME280;6362;50.208;9.182;2023-04-02T13:14:59;100222.63;;;6.47;70.13
12594;BME280;6362;50.208;9.182;2023-04-02T13:17:39;100225.22;;;6.48;70.37
12594;BME280;6362;50.208;9.182;2023-04-02T13:22:57;100240.63;;;6.41;71.07
12594;BME280;6362;50.208;9.182;2023-04-02T13:25:34;100241.44;;;6.38;71.97
12594;BME280;6362;50.208;9.182;2023-04-02T13:28:00;100247.38;;;6.32;71.21
12594;BME280;6362;50.208;9.182;2023-04-02T13:30:27;100254.19;;;6.26;70.91
12594;BME280;6362;50.208;9.182;2023-04-02T13:32:54;100255.03;;;6.26;70.95
12594;BME280;6362;50.208;9.182;2023-04-02T13:35:19;100251.31;;;6.07;70.66
12594;BME280;6362;50.208;9.182;2023-04-02T13:37:46;100257.34;;;6.08;71.87
12594;BME280;6362;50.208;9.182;2023-04-02T13:40:15;100265.97;;;6.08;70.98
12594;BME280;6362;50.208;9.182;2023-04-02T13:42:41;100266.56;;;5.94;71.16
12594;BME280;6362;50.208;9.182;2023-04-02T13:45:23;100277.72;;;5.91;71.11
12594;BME280;6362;50.208;9.182;2023-04-02T13:47:49;100276.56;;;5.75;71.47
12594;BME280;6362;50.208;9.182;2023-04-02T13:50:17;100280.44;;;5.50;72.36
12594;BME280;6362;50.208;9.182;2023-04-02T13:52:43;100277.75;;;5.46;72.53
12594;BME280;6362;50.208;9.182;2023-04-02T13:55:08;100287.00;;;5.33;73.75
12594;BME280;6362;50.208;9.182;2023-04-02T13:57:35;100285.41;;;5.41;73.34
12594;BME280;6362;50.208;9.182;2023-04-02T14:00:03;100284.53;;;5.41;72.57
12594;BME280;6362;50.208;9.182;2023-04-02T14:02:29;100290.75;;;5.50;72.07
12594;BME280;6362;50.208;9.182;2023-04-02T14:11:01;100310.00;;;5.69;71.07
12594;BME280;6362;50.208;9.182;2023-04-02T14:41:12;100345.16;;;5.63;68.18
12594;BME280;6362;50.208;9.182;2023-04-02T14:43:51;100348.63;;;5.66;68.13
12594;BME280;6362;50.208;9.182;2023-04-02T14:46:18;100346.16;;;5.71;68.67
12594;BME280;6362;50.208;9.182;2023-04-02T14:48:49;100354.81;;;5.73;67.08
12594;BME280;6362;50.208;9.182;2023-04-02T14:59:42;100371.50;;;5.46;65.50
12594;BME280;6362;50.208;9.182;2023-04-02T15:08:03;100379.72;;;5.28;65.33
12594;BME280;6362;50.208;9.182;2023-04-02T15:10:32;100389.97;;;5.25;65.01
12594;BME280;6362;50.208;9.182;2023-04-02T15:13:03;100389.03;;;5.22;66.04
12594;BME280;6362;50.208;9.182;2023-04-02T15:15:35;100391.66;;;5.25;65.88
12594;BME280;6362;50.208;9.182;2023-04-02T15:18:05;100385.00;;;5.33;65.19
12594;BME280;6362;50.208;9.182;2023-04-02T15:20:47;100387.59;;;5.36;64.74
12594;BME280;6362;50.208;9.182;2023-04-02T15:23:28;100392.78;;;5.36;64.77
12594;BME280;6362;50.208;9.182;2023-04-02T15:29:51;100402.28;;;5.39;64.15
12594;BME280;6362;50.208;9.182;2023-04-02T15:31:50;100397.31;;;5.48;64.57
12594;BME280;6362;50.208;9.182;2023-04-02T15:37:25;100410.94;;;5.42;63.09
12594;BME280;6362;50.208;9.182;2023-04-02T15:42:38;100414.06;;;5.68;62.94
12594;BME280;6362;50.208;9.182;2023-04-02T16:01:44;100431.09;;;5.60;60.83
12594;BME280;6362;50.208;9.182;2023-04-02T16:07:24;100429.38;;;5.61;60.81
12594;BME280;6362;50.208;9.182;2023-04-02T16:10:20;100442.44;;;5.67;60.81
12594;BME280;6362;50.208;9.182;2023-04-02T16:12:50;100438.50;;;5.86;60.27
12594;BME280;6362;50.208;9.182;2023-04-02T16:15:21;100445.00;;;6.11;61.39
12594;BME280;6362;50.208;9.182;2023-04-02T16:18:00;100451.63;;;6.43;60.63
12594;BME280;6362;50.208;9.182;2023-04-02T16:20:31;100456.00;;;6.46;58.72
12594;BME280;6362;50.208;9.182;2023-04-02T16:23:02;100468.59;;;6.27;58.62
12594;BME280;6362;50.208;9.182;2023-04-02T16:26:01;100467.91;;;5.92;58.73
12594;BME280;6362;50.208;9.182;2023-04-02T16:31:45;100475.00;;;5.62;59.26
12594;BME280;6362;50.208;9.182;2023-04-02T16:42:51;100483.47;;;4.82;62.11
12594;BME280;6362;50.208;9.182;2023-04-02T17:08:01;100521.22;;;4.15;64.21
12594;BME280;6362;50.208;9.182;2023-04-02T17:10:32;100532.63;;;4.23;63.75
12594;BME280;6362;50.208;9.182;2023-04-02T17:13:42;100532.50;;;4.19;62.67
12594;BME280;6362;50.208;9.182;2023-04-02T17:16:20;100540.25;;;4.20;64.47
12594;BME280;6362;50.208;9.182;2023-04-02T17:18:52;100543.34;;;4.09;64.37
12594;BME280;6362;50.208;9.182;2023-04-02T17:21:23;100557.03;;;4.06;63.85
12594;BME280;6362;50.208;9.182;2023-04-02T17:23:53;100554.28;;;4.00;64.14
12594;BME280;6362;50.208;9.182;2023-04-02T17:26:19;100561.09;;;4.00;65.14
12594;BME280;6362;50.208;9.182;2023-04-02T17:28:47;100565.34;;;3.97;65.50
12594;BME280;6362;50.208;9.182;2023-04-02T17:31:18;100570.59;;;4.01;65.58
12594;BME280;6362;50.208;9.182;2023-04-02T17:33:44;100575.81;;;4.04;64.04
12594;BME280;6362;50.208;9.182;2023-04-02T17:39:00;100586.75;;;3.96;65.37
12594;BME280;6362;50.208;9.182;2023-04-02T17:47:27;100608.91;;;3.91;65.69
12594;BME280;6362;50.208;9.182;2023-04-02T18:06:13;100654.91;;;3.82;65.74
12594;BME280;6362;50.208;9.182;2023-04-02T18:35:24;100704.16;;;3.93;65.51
12594;BME280;6362;50.208;9.182;2023-04-02T18:38:41;100703.97;;;3.87;65.66
12594;BME280;6362;50.208;9.182;2023-04-02T18:46:38;100711.88;;;3.93;64.15
12594;BME280;6362;50.208;9.182;2023-04-02T18:51:43;100717.50;;;3.81;64.73
12594;BME280;6362;50.208;9.182;2023-04-02T18:56:39;100732.03;;;3.79;65.46
12594;BME280;6362;50.208;9.182;2023-04-02T19:01:51;100739.75;;;3.79;65.76
12594;BME280;6362;50.208;9.182;2023-04-02T19:04:38;100746.13;;;3.90;65.15
12594;BME280;6362;50.208;9.182;2023-04-02T19:07:11;100742.41;;;3.82;64.39
12594;BME280;6362;50.208;9.182;2023-04-02T19:09:41;100747.50;;;3.81;65.85
12594;BME280;6362;50.208;9.182;2023-04-02T19:12:16;100743.94;;;3.77;65.78
12594;BME280;6362;50.208;9.182;2023-04-02T19:14:43;100744.03;;;3.79;65.68
12594;BME280;6362;50.208;9.182;2023-04-02T19:17:38;100748.38;;;3.81;65.87
12594;BME280;6362;50.208;9.182;2023-04-02T19:26:00;100757.78;;;3.81;65.03
12594;BME280;6362;50.208;9.182;2023-04-02T19:28:40;100756.00;;;3.78;65.30
12594;BME280;6362;50.208;9.182;2023-04-02T19:33:54;100766.44;;;3.83;64.46
12594;BME280;6362;50.208;9.182;2023-04-02T19:41:44;100769.78;;;3.80;64.85
12594;BME280;6362;50.208;9.182;2023-04-02T19:44:14;100777.47;;;3.79;63.72